createdAt,value
2023-04-21T05:30:31.126Z,7.43
2023-04-21T05:32:59.700Z,7.53
2023-04-21T05:35:28.562Z,7.61
2023-04-21T05:37:56.943Z,7.73
2023-04-21T05:40:25.305Z,7.78
2023-04-21T05:42:53.613Z,7.81
2023-04-21T05:45:22.704Z,7.90
2023-04-21T05:47:52.408Z,7.96
2023-04-21T05:50:21.605Z,8.01
2023-04-21T05:52:49.920Z,8.06
2023-04-21T05:55:18.724Z,8.11
2023-04-21T05:57:47.545Z,8.15
2023-04-21T06:00:17.383Z,8.19
2023-04-21T06:02:46.357Z,8.17
2023-04-21T06:05:16.337Z,8.12
2023-04-21T06:07:45.569Z,8.07
2023-04-21T06:10:15.401Z,7.99
2023-04-21T06:12:44.752Z,8.07
2023-04-21T06:15:13.246Z,8.10
2023-04-21T06:17:41.608Z,8.16
2023-04-21T06:20:11.720Z,8.32
2023-04-21T06:22:41.446Z,8.47
2023-04-21T06:25:10.481Z,8.51
2023-04-21T06:27:38.846Z,8.58
2023-04-21T06:30:09.036Z,8.68
2023-04-21T06:32:37.908Z,8.72
2023-04-21T06:35:06.995Z,8.76
2023-04-21T06:37:35.342Z,8.90
2023-04-21T06:40:05.828Z,9.07
2023-04-21T06:42:35.237Z,9.01
2023-04-21T06:45:03.647Z,9.07
2023-04-21T06:47:32.158Z,9.13
2023-04-21T06:50:00.606Z,9.26
2023-04-21T06:52:29.436Z,9.39
2023-04-21T06:54:58.192Z,9.59
2023-04-21T06:57:28.111Z,9.71
2023-04-21T06:59:57.096Z,9.74
2023-04-21T07:02:25.462Z,9.77
2023-04-21T07:04:54.370Z,9.92
2023-04-21T07:07:23.151Z,10.03
2023-04-21T07:09:51.687Z,10.10
2023-04-21T07:12:20.061Z,10.28
2023-04-21T07:14:49.768Z,10.44
2023-04-21T07:17:18.128Z,10.44
2023-04-21T07:19:46.897Z,10.52
2023-04-21T07:22:15.345Z,10.69
2023-04-21T07:24:43.948Z,10.84
2023-04-21T07:27:12.313Z,10.98
2023-04-21T07:29:40.745Z,10.82
2023-04-21T07:32:10.581Z,11.06
2023-04-21T07:34:38.925Z,11.07
2023-04-21T07:37:07.317Z,11.15
2023-04-21T07:39:35.880Z,11.27
2023-04-21T07:42:08.520Z,11.27
2023-04-21T07:44:36.866Z,11.42
2023-04-21T07:47:05.978Z,11.49
2023-04-21T07:49:35.752Z,11.49
2023-04-21T07:52:04.230Z,11.49
2023-04-21T07:54:33.213Z,11.41
2023-04-21T07:57:02.158Z,11.23
2023-04-21T07:59:31.256Z,11.23
2023-04-21T08:01:59.795Z,11.32
2023-04-21T08:04:28.469Z,11.42
2023-04-21T08:06:59.209Z,11.48
2023-04-21T08:09:27.967Z,11.65
2023-04-21T08:11:57.155Z,11.78
2023-04-21T08:14:27.221Z,11.95
2023-04-21T08:16:57.186Z,12.22
2023-04-21T08:19:26.408Z,12.27
2023-04-21T08:21:55.270Z,12.39
2023-04-21T08:24:25.351Z,12.46
2023-04-21T08:26:53.753Z,12.43
2023-04-21T08:29:22.545Z,12.67
2023-04-21T08:31:50.985Z,12.86
2023-04-21T08:34:20.993Z,13.06
2023-04-21T08:36:50.054Z,13.16
2023-04-21T08:39:19.137Z,13.14
2023-04-21T08:41:49.277Z,13.11
2023-04-21T08:44:19.513Z,13.09
2023-04-21T08:46:50.380Z,13.05
2023-04-21T08:49:21.987Z,13.18
2023-04-21T08:51:51.362Z,13.40
2023-04-21T08:54:19.908Z,13.58
2023-04-21T08:56:50.439Z,13.60
2023-04-21T08:59:18.995Z,13.51
2023-04-21T09:02:10.853Z,13.37
2023-04-21T09:04:40.885Z,13.43
2023-04-21T09:07:10.078Z,13.62
2023-04-21T09:09:55.125Z,13.78
2023-04-21T09:12:25.571Z,14.09
2023-04-21T09:14:54.764Z,14.30
2023-04-21T09:17:28.480Z,14.51
2023-04-21T09:19:57.018Z,14.87
2023-04-21T09:22:29.523Z,15.24
2023-04-21T09:25:00.618Z,15.42
2023-04-21T09:27:30.571Z,15.59
2023-04-21T09:30:06.100Z,15.64
2023-04-21T09:32:38.092Z,15.85
2023-04-21T09:35:08.362Z,16.07
2023-04-21T09:37:36.862Z,16.29
2023-04-21T09:40:06.551Z,16.43
2023-04-21T09:42:39.430Z,16.50
2023-04-21T09:47:43.980Z,16.84
2023-04-21T09:50:14.742Z,16.92
2023-04-21T09:52:45.164Z,16.70
2023-04-21T09:55:14.381Z,16.64
2023-04-21T09:57:48.727Z,16.67
2023-04-21T10:00:22.588Z,16.48
2023-04-21T10:02:54.294Z,16.34
2023-04-21T10:05:24.061Z,16.28
2023-04-21T10:07:53.319Z,16.20
2023-04-21T10:10:25.919Z,16.15
2023-04-21T10:12:56.600Z,16.19
2023-04-21T10:15:33.018Z,16.12
2023-04-21T10:18:16.297Z,16.18
2023-04-21T10:20:58.618Z,16.28
2023-04-21T10:23:31.796Z,16.46
2023-04-21T10:26:12.800Z,16.66
2023-04-21T10:28:47.711Z,16.83
2023-04-21T10:31:25.944Z,16.85
2023-04-21T10:34:16.959Z,16.95
2023-04-21T10:36:53.050Z,16.93
2023-04-21T10:39:28.552Z,17.18
2023-04-21T10:41:59.226Z,17.69
2023-04-21T10:44:30.113Z,18.38
2023-04-21T10:47:00.887Z,18.95
2023-04-21T10:49:31.370Z,19.24
2023-04-21T10:52:08.640Z,19.39
2023-04-21T10:54:45.800Z,19.68
2023-04-21T10:57:17.351Z,20.11
2023-04-21T10:59:49.503Z,20.11
2023-04-21T11:02:19.633Z,20.17
2023-04-21T11:04:52.903Z,20.42
2023-04-21T11:07:23.889Z,20.56
2023-04-21T11:09:59.413Z,20.74
2023-04-21T11:12:30.137Z,20.90
2023-04-21T11:15:00.465Z,20.85
2023-04-21T11:17:28.896Z,20.71
2023-04-21T11:19:58.078Z,21.24
2023-04-21T11:22:27.641Z,21.69
2023-04-21T11:24:58.701Z,21.84
2023-04-21T11:27:28.834Z,22.14
2023-04-21T11:29:58.404Z,22.49
2023-04-21T11:32:29.203Z,22.77
2023-04-21T11:34:58.484Z,22.89
2023-04-21T11:37:28.395Z,22.93
2023-04-21T11:40:00.588Z,23.18
2023-04-21T11:42:29.832Z,23.51
2023-04-21T11:44:58.470Z,23.66
2023-04-21T11:47:29.944Z,23.81
2023-04-21T11:50:00.643Z,24.04
2023-04-21T11:52:32.852Z,24.33
2023-04-21T11:55:03.311Z,24.32
2023-04-21T11:57:33.144Z,24.35
2023-04-21T12:00:03.942Z,24.38
2023-04-21T12:02:35.151Z,24.79
2023-04-21T12:05:05.821Z,24.91
2023-04-21T12:07:36.124Z,25.05
2023-04-21T12:10:12.034Z,25.40
2023-04-21T12:12:41.148Z,25.45
2023-04-21T12:15:11.614Z,25.53
2023-04-21T12:17:45.300Z,25.56
2023-04-21T12:20:17.247Z,25.64
2023-04-21T12:22:47.770Z,25.79
2023-04-21T12:25:16.390Z,25.84
2023-04-21T12:27:52.489Z,25.97
2023-04-21T12:30:21.270Z,26.09
2023-04-21T12:32:52.675Z,26.11
2023-04-21T12:35:21.046Z,26.19
2023-04-21T12:37:49.796Z,25.89
2023-04-21T12:40:18.926Z,26.09
2023-04-21T12:42:49.076Z,26.24
2023-04-21T12:45:17.523Z,25.94
2023-04-21T12:47:47.114Z,25.97
2023-04-21T12:50:17.059Z,25.76
2023-04-21T12:52:46.155Z,25.90
2023-04-21T12:55:15.080Z,25.68
2023-04-21T12:57:43.472Z,25.69
2023-04-21T13:00:15.282Z,25.82
2023-04-21T13:02:43.766Z,26.20
2023-04-21T13:05:13.847Z,26.72
2023-04-21T13:07:43.690Z,27.01
2023-04-21T13:10:12.924Z,27.32
2023-04-21T13:12:41.926Z,27.60
2023-04-21T13:15:11.547Z,27.78
2023-04-21T13:17:40.047Z,27.85
2023-04-21T13:20:09.213Z,27.89
2023-04-21T13:22:38.632Z,28.12
2023-04-21T13:25:09.412Z,27.98
2023-04-21T13:27:40.502Z,28.19
2023-04-21T13:30:10.461Z,28.14
2023-04-21T13:32:39.750Z,27.81
2023-04-21T13:35:10.574Z,27.62
2023-04-21T13:37:39.784Z,27.36
2023-04-21T13:40:11.775Z,27.52
2023-04-21T13:42:40.780Z,27.37
2023-04-21T13:45:11.078Z,27.15
2023-04-21T13:47:39.747Z,26.84
2023-04-21T13:50:09.945Z,26.89
2023-04-21T13:52:38.448Z,27.06
2023-04-21T13:55:10.535Z,26.82
2023-04-21T13:57:39.597Z,26.84
2023-04-21T14:00:10.831Z,27.20
2023-04-21T14:02:41.242Z,26.97
2023-04-21T14:05:10.115Z,27.17
2023-04-21T14:07:39.728Z,27.11
2023-04-21T14:10:11.489Z,26.98
2023-04-21T14:12:39.886Z,26.96
2023-04-21T14:15:10.133Z,26.86
2023-04-21T14:17:38.688Z,26.93
2023-04-21T14:20:09.735Z,27.20
2023-04-21T14:22:38.209Z,27.56
2023-04-21T14:25:10.259Z,27.51
2023-04-21T14:27:39.044Z,27.72
2023-04-21T14:30:08.844Z,27.82
2023-04-21T14:32:37.428Z,28.01
2023-04-21T14:35:07.070Z,28.25
2023-04-21T14:37:35.400Z,28.32
2023-04-21T14:40:05.104Z,28.36
2023-04-21T14:42:34.960Z,28.10
2023-04-21T14:45:03.459Z,28.29
2023-04-21T14:47:33.607Z,28.49
2023-04-21T14:50:02.226Z,28.37
2023-04-21T14:52:31.498Z,28.03
2023-04-21T14:55:00.622Z,28.21
2023-04-21T14:57:29.019Z,28.33
2023-04-21T14:59:59.009Z,28.32
2023-04-21T15:02:27.585Z,28.28
2023-04-21T15:04:57.841Z,28.31
2023-04-21T15:07:26.448Z,28.01
2023-04-21T15:09:55.467Z,28.08
2023-04-21T15:12:26.024Z,28.17
2023-04-21T15:14:54.399Z,27.59
2023-04-21T15:17:24.943Z,27.61
2023-04-21T15:19:53.274Z,27.64
2023-04-21T15:22:22.886Z,27.64
2023-04-21T15:24:54.376Z,27.77
2023-04-21T15:27:23.787Z,28.00
2023-04-21T15:29:52.326Z,28.01
2023-04-21T15:32:20.837Z,28.05
2023-04-21T15:34:51.299Z,27.91
2023-04-21T15:37:23.538Z,27.97
2023-04-21T15:39:53.847Z,27.91
2023-04-21T15:42:22.656Z,27.86
2023-04-21T15:44:51.522Z,27.84
2023-04-21T15:47:20.827Z,27.86
2023-04-21T15:49:49.294Z,27.80
2023-04-21T15:52:20.208Z,27.76
2023-04-21T15:54:48.649Z,27.62
2023-04-21T15:57:17.934Z,27.52
2023-04-21T15:59:46.458Z,27.57
2023-04-21T16:02:15.827Z,27.59
2023-04-21T16:04:44.884Z,27.40
2023-04-21T16:07:13.593Z,27.11
2023-04-21T16:09:46.585Z,27.06
2023-04-21T16:12:15.064Z,27.02
2023-04-21T16:14:54.616Z,27.03
2023-04-21T16:17:28.044Z,26.80
2023-04-21T16:19:56.564Z,26.82
2023-04-21T16:22:25.059Z,26.83
2023-04-21T16:24:55.359Z,26.77
2023-04-21T16:27:24.283Z,26.74
2023-04-21T16:29:52.616Z,26.75
2023-04-21T16:32:21.908Z,26.57
2023-04-21T16:34:50.489Z,26.55
2023-04-21T16:37:20.424Z,26.56
2023-04-21T16:39:48.750Z,26.41
2023-04-21T16:42:19.644Z,26.20
2023-04-21T16:44:48.004Z,26.16
2023-04-21T16:47:16.903Z,26.22
2023-04-21T16:49:45.346Z,26.07
2023-04-21T16:52:14.777Z,25.78
2023-04-21T16:54:43.575Z,25.59
2023-04-21T16:57:11.909Z,25.62
2023-04-21T16:59:42.693Z,25.51
2023-04-21T17:02:11.227Z,25.38
2023-04-21T17:04:40.574Z,25.20
2023-04-21T17:07:09.094Z,24.96
2023-04-21T17:09:39.024Z,24.81
2023-04-21T17:12:07.896Z,24.58
2023-04-21T17:14:36.963Z,24.42
2023-04-21T17:17:07.603Z,24.14
2023-04-21T17:19:36.268Z,24.00
2023-04-21T17:22:05.340Z,23.96
2023-04-21T17:24:44.928Z,23.80
2023-04-21T17:27:21.482Z,23.77
2023-04-21T17:29:50.056Z,23.76
2023-04-21T17:32:20.629Z,23.60
2023-04-21T17:34:49.067Z,23.45
2023-04-21T17:37:18.479Z,23.31
2023-04-21T17:39:46.814Z,23.23
2023-04-21T17:42:15.186Z,23.15
2023-04-21T17:44:43.899Z,22.99
2023-04-21T17:47:12.797Z,22.75
2023-04-21T17:49:42.479Z,22.56
2023-04-21T17:52:10.792Z,22.36
2023-04-21T17:54:40.870Z,22.18
2023-04-21T17:57:09.343Z,21.94
2023-04-21T17:59:38.106Z,21.69
2023-04-21T18:02:06.538Z,21.51
2023-04-21T18:04:35.500Z,21.32
2023-04-21T18:07:05.895Z,21.02
2023-04-21T18:09:34.793Z,20.99
2023-04-21T18:12:03.979Z,20.83
2023-04-21T18:14:33.240Z,20.70
2023-04-21T18:17:01.730Z,20.71
2023-04-21T18:19:30.679Z,20.66
2023-04-21T18:21:59.152Z,20.64
2023-04-21T18:24:29.798Z,20.54
2023-04-21T18:26:58.389Z,20.55
2023-04-21T18:29:27.261Z,20.53
2023-04-21T18:31:56.689Z,20.51
2023-04-21T18:34:25.176Z,20.38
2023-04-21T18:36:54.438Z,20.31
2023-04-21T18:39:22.763Z,20.04
2023-04-21T18:41:53.520Z,19.87
2023-04-21T18:44:21.904Z,19.79
2023-04-21T18:46:51.192Z,19.71
2023-04-21T18:49:20.031Z,19.54
2023-04-21T18:51:48.487Z,19.40
2023-04-21T18:54:17.990Z,19.24
2023-04-21T18:56:47.534Z,19.23
2023-04-21T18:59:17.549Z,19.17
2023-04-21T19:01:47.003Z,19.10
2023-04-21T19:04:15.673Z,19.13
2023-04-21T19:06:45.559Z,19.15
2023-04-21T19:09:14.099Z,19.19
2023-04-21T19:11:43.150Z,19.11
2023-04-21T19:14:12.479Z,19.10
2023-04-21T19:16:42.275Z,19.10
2023-04-21T19:19:11.696Z,19.02
2023-04-21T19:21:40.121Z,19.02
2023-04-21T19:24:08.617Z,18.94
2023-04-21T19:26:37.006Z,18.70
2023-04-21T19:29:09.080Z,18.73
2023-04-21T19:31:37.493Z,18.55
2023-04-21T19:34:07.683Z,18.56
2023-04-21T19:36:36.660Z,18.60
2023-04-21T19:39:06.717Z,18.57
2023-04-21T19:41:35.307Z,18.52
2023-04-21T19:44:04.138Z,18.48
2023-04-21T19:46:34.031Z,18.40
2023-04-21T19:49:02.762Z,18.21
2023-04-21T19:51:32.922Z,18.30
2023-04-21T19:54:10.642Z,18.09
2023-04-21T19:56:39.978Z,18.00
2023-04-21T19:59:09.300Z,17.87
2023-04-21T20:01:37.824Z,17.81
2023-04-21T20:04:07.877Z,17.76
2023-04-21T20:06:40.111Z,17.74
2023-04-21T20:09:10.582Z,17.67
2023-04-21T20:11:38.934Z,17.41
2023-04-21T20:14:07.649Z,17.27
2023-04-21T20:16:36.176Z,17.05
2023-04-21T20:19:05.812Z,17.04
2023-04-21T20:21:34.827Z,16.98
2023-04-21T20:24:04.740Z,16.99
2023-04-21T20:26:33.550Z,16.90
2023-04-21T20:29:02.904Z,16.85
2023-04-21T20:31:31.910Z,16.88
2023-04-21T20:34:00.309Z,16.88
2023-04-21T20:36:29.687Z,16.89
2023-04-21T20:39:00.443Z,16.92
2023-04-21T20:41:31.294Z,16.85
2023-04-21T20:44:01.608Z,16.83
2023-04-21T20:46:30.133Z,16.77
2023-04-21T20:48:59.018Z,16.74
2023-04-21T20:51:27.646Z,16.80
2023-04-21T20:53:56.797Z,16.74
2023-04-21T20:56:25.509Z,16.68
2023-04-21T20:58:56.141Z,16.67
2023-04-21T21:01:24.881Z,16.68
2023-04-21T21:03:53.925Z,16.66
2023-04-21T21:06:23.221Z,16.62
2023-04-21T21:08:51.624Z,16.59
2023-04-21T21:11:21.959Z,16.60
2023-04-21T21:13:50.252Z,16.45
2023-04-21T21:16:21.205Z,16.35
2023-04-21T21:18:49.685Z,16.29
2023-04-21T21:21:18.524Z,16.16
2023-04-21T21:23:46.996Z,15.98
2023-04-21T21:26:15.796Z,16.08
2023-04-21T21:28:44.188Z,16.06
2023-04-21T21:31:12.945Z,15.97
2023-04-21T21:33:42.645Z,15.94
2023-04-21T21:36:12.674Z,15.87
2023-04-21T21:38:41.577Z,15.76
2023-04-21T21:41:12.220Z,15.67
2023-04-21T21:43:40.924Z,15.65
2023-04-21T21:46:10.221Z,15.74
2023-04-21T21:48:39.196Z,15.72
2023-04-21T21:51:09.351Z,15.57
2023-04-21T21:53:38.859Z,15.52
2023-04-21T21:56:07.500Z,15.50
2023-04-21T21:58:36.718Z,15.48
2023-04-21T22:01:05.604Z,15.49
2023-04-21T22:03:35.874Z,15.42
2023-04-21T22:06:04.497Z,15.51
2023-04-21T22:08:34.994Z,15.47
2023-04-21T22:11:05.823Z,15.43
2023-04-21T22:13:34.911Z,15.45
2023-04-21T22:16:04.208Z,15.42
2023-04-21T22:18:32.877Z,15.36
2023-04-21T22:21:02.080Z,15.19
2023-04-21T22:23:30.606Z,15.33
2023-04-21T22:26:02.168Z,15.18
2023-04-21T22:28:30.957Z,15.23
2023-04-21T22:30:59.396Z,15.10
2023-04-21T22:33:29.185Z,15.11
2023-04-21T22:35:57.579Z,14.99
2023-04-21T22:38:26.349Z,14.86
2023-04-21T22:40:54.761Z,14.84
2023-04-21T22:43:25.718Z,14.76
2023-04-21T22:45:54.416Z,14.73
2023-04-21T22:48:26.154Z,14.66
2023-04-21T22:50:55.476Z,14.69
2023-04-21T22:53:25.222Z,14.63
2023-04-21T22:55:53.897Z,14.62
2023-04-21T22:58:22.775Z,14.62
2023-04-21T23:00:52.763Z,14.68
2023-04-21T23:03:23.210Z,14.68
2023-04-21T23:05:52.330Z,14.68
2023-04-21T23:08:20.655Z,14.59
2023-04-21T23:10:50.137Z,14.55
2023-04-21T23:13:18.540Z,14.60
2023-04-21T23:15:47.011Z,14.54
2023-04-21T23:18:17.044Z,14.46
2023-04-21T23:20:45.416Z,14.39
2023-04-21T23:23:14.593Z,14.33
2023-04-21T23:25:42.916Z,14.30
2023-04-21T23:28:11.693Z,14.28
2023-04-21T23:30:40.667Z,14.19
2023-04-21T23:33:09.135Z,14.20
2023-04-21T23:35:39.311Z,14.22
2023-04-21T23:38:07.666Z,14.16
2023-04-21T23:40:36.432Z,14.19
2023-04-21T23:43:04.980Z,14.23
2023-04-21T23:45:34.388Z,14.22
2023-04-21T23:48:02.797Z,14.14
2023-04-21T23:50:31.815Z,14.05
2023-04-21T23:53:01.679Z,13.92
2023-04-21T23:55:30.092Z,13.84
2023-04-21T23:57:58.474Z,13.74
